Time;durP1;ratioP1;P1;durP2;ratioP2;P2;SDS_P1;SDS_P2;PMS_P1;PMS_P2;Temp;Humidity;BMP_temperature;BMP_pressure;BME280_temperature;BME280_humidity;BME280_pressure;Samples;Min_cycle;Max_cycle;Signal;HPM_P1;HPM_P2
2022/01/13 00:02:12;;;;;;;148.23;65.45;;;;;;;;;;5094137;28;20024;-62
2022/01/13 00:04:38;;;;;;;147.25;66.97;;;;;;;;;;5094203;28;20067;-62
2022/01/13 00:07:05;;;;;;;153.18;67.28;;;;;;;;;;5094266;28;20077;-62
2022/01/13 00:09:31;;;;;;;158.18;67.13;;;;;;;;;;5094071;28;20062;-63
2022/01/13 00:11:58;;;;;;;146.48;65.20;;;;;;;;;;5093672;28;20035;-64
2022/01/13 00:14:39;;;;;;;151.10;66.57;;;;;;;;;;5094300;28;20111;-63
2022/01/13 00:24:53;;;;;;;145.90;64.47;;;;;;;;;;5073422;28;20036;-64
2022/01/13 00:27:22;;;;;;;152.38;67.75;;;;;;;;;;5073773;28;20020;-64
2022/01/13 00:29:48;;;;;;;155.77;66.88;;;;;;;;;;5073771;28;20491;-64
2022/01/13 00:32:15;;;;;;;145.25;66.30;;;;;;;;;;5073418;28;20020;-63
2022/01/13 00:34:42;;;;;;;146.95;63.47;;;;;;;;;;5073665;28;20525;-63
2022/01/13 00:37:08;;;;;;;155.70;66.50;;;;;;;;;;5073521;28;20028;-63
2022/01/13 00:39:34;;;;;;;141.45;63.67;;;;;;;;;;5073570;28;20077;-63
2022/01/13 00:42:00;;;;;;;159.07;68.80;;;;;;;;;;5073196;28;20028;-63
2022/01/13 00:44:26;;;;;;;157.77;70.15;;;;;;;;;;5073433;28;20444;-63
2022/01/13 00:47:00;;;;;;;150.80;66.22;;;;;;;;;;5073222;28;20389;-63
2022/01/13 00:49:26;;;;;;;139.27;63.65;;;;;;;;;;5073532;28;20016;-63
2022/01/13 00:51:52;;;;;;;154.25;65.68;;;;;;;;;;5073445;28;20115;-63
2022/01/13 00:54:18;;;;;;;144.32;62.30;;;;;;;;;;5073237;28;20415;-63
2022/01/13 00:56:44;;;;;;;148.77;62.05;;;;;;;;;;5073617;28;20025;-63
2022/01/13 00:59:15;;;;;;;135.90;61.05;;;;;;;;;;5072710;28;20028;-64
2022/01/13 01:01:42;;;;;;;142.20;62.67;;;;;;;;;;5073316;28;20113;-63
2022/01/13 01:04:09;;;;;;;142.18;60.42;;;;;;;;;;5072839;28;20027;-63
2022/01/13 01:06:35;;;;;;;138.48;61.28;;;;;;;;;;5073066;28;20469;-63
2022/01/13 01:09:01;;;;;;;134.55;61.20;;;;;;;;;;5072884;28;20025;-64
2022/01/13 01:11:28;;;;;;;133.50;61.33;;;;;;;;;;5073131;28;20459;-63
2022/01/13 01:13:55;;;;;;;145.68;67.40;;;;;;;;;;5072963;28;20117;-63
2022/01/13 01:16:22;;;;;;;140.63;63.45;;;;;;;;;;5087846;28;20056;-63
2022/01/13 01:26:42;;;;;;;143.55;63.35;;;;;;;;;;5092817;28;20059;-64
2022/01/13 01:31:52;;;;;;;136.77;60.95;;;;;;;;;;5093090;28;20081;-64
2022/01/13 01:34:34;;;;;;;132.95;60.15;;;;;;;;;;5092796;28;20075;-64
2022/01/13 01:37:00;;;;;;;;;;;;;;;;;;5093381;28;20054;-64
2022/01/13 01:39:26;;;;;;;139.95;60.97;;;;;;;;;;5092765;28;20363;-63
2022/01/13 01:41:55;;;;;;;151.43;65.57;;;;;;;;;;5093061;28;20375;-63
2022/01/13 01:44:27;;;;;;;146.48;62.85;;;;;;;;;;5092551;28;20028;-63
2022/01/13 01:46:53;;;;;;;143.00;62.75;;;;;;;;;;5092311;28;20036;-63
2022/01/13 01:49:22;;;;;;;142.95;62.58;;;;;;;;;;5092704;28;20480;-66
2022/01/13 01:51:50;;;;;;;143.82;64.07;;;;;;;;;;5092581;28;20035;-63
2022/01/13 01:54:16;;;;;;;149.38;65.18;;;;;;;;;;5092447;28;20020;-63
2022/01/13 01:56:43;;;;;;;188.40;77.80;;;;;;;;;;5092490;28;20034;-63
2022/01/13 01:59:13;;;;;;;166.50;71.32;;;;;;;;;;5092055;28;20021;-63
2022/01/13 02:01:39;;;;;;;150.73;66.53;;;;;;;;;;5092281;28;20020;-63
2022/01/13 02:04:05;;;;;;;151.88;67.85;;;;;;;;;;5092133;28;20030;-63
2022/01/13 02:06:31;;;;;;;158.23;68.57;;;;;;;;;;5092151;28;20044;-63
2022/01/13 02:08:57;;;;;;;164.32;70.40;;;;;;;;;;5091826;28;20480;-63
2022/01/13 02:11:27;;;;;;;162.20;71.45;;;;;;;;;;5091526;28;20051;-63
2022/01/13 02:13:58;;;;;;;154.68;68.13;;;;;;;;;;5091877;28;20024;-63
2022/01/13 02:19:00;;;;;;;145.80;62.22;;;;;;;;;;5092073;28;20035;-63
2022/01/13 02:21:26;;;;;;;135.52;59.47;;;;;;;;;;5091918;28;20016;-63
2022/01/13 02:23:52;;;;;;;138.07;59.00;;;;;;;;;;5091784;28;20032;-64
2022/01/13 02:26:18;;;;;;;134.57;58.85;;;;;;;;;;5091593;28;20032;-63
2022/01/13 02:28:45;;;;;;;137.23;60.08;;;;;;;;;;5091460;28;20474;-64
2022/01/13 02:31:12;;;;;;;130.75;59.38;;;;;;;;;;5091936;28;20047;-63
2022/01/13 02:33:38;;;;;;;125.63;57.38;;;;;;;;;;5091758;28;20020;-63
2022/01/13 02:36:05;;;;;;;131.65;59.42;;;;;;;;;;5091764;28;20443;-63
2022/01/13 02:38:31;;;;;;;134.55;59.88;;;;;;;;;;5091552;28;20369;-64
2022/01/13 02:40:58;;;;;;;130.15;57.30;;;;;;;;;;5091554;28;20057;-63
2022/01/13 02:43:25;;;;;;;136.27;60.88;;;;;;;;;;5091493;28;20016;-63
2022/01/13 02:46:05;;;;;;;133.48;60.72;;;;;;;;;;5090120;28;20423;-63
2022/01/13 02:48:32;;;;;;;132.35;57.58;;;;;;;;;;5091539;28;20024;-63
2022/01/13 02:50:59;;;;;;;130.07;57.35;;;;;;;;;;5090960;28;20020;-63
2022/01/13 02:53:26;;;;;;;134.40;60.00;;;;;;;;;;5091149;28;20020;-63
2022/01/13 02:56:04;;;;;;;128.25;58.25;;;;;;;;;;5091496;28;20379;-63
2022/01/13 02:58:31;;;;;;;134.93;59.45;;;;;;;;;;5091183;28;20031;-63
2022/01/13 03:00:57;;;;;;;127.55;57.45;;;;;;;;;;5091832;28;20032;-63
2022/01/13 03:03:23;;;;;;;128.80;57.20;;;;;;;;;;5092988;28;20055;-63
2022/01/13 03:05:49;;;;;;;128.43;57.08;;;;;;;;;;5092094;28;20081;-64
2022/01/13 03:08:15;;;;;;;136.00;58.53;;;;;;;;;;5090945;28;20435;-63
2022/01/13 03:10:41;;;;;;;135.60;58.97;;;;;;;;;;5091586;28;20067;-63
2022/01/13 03:13:08;;;;;;;125.45;57.58;;;;;;;;;;5091279;28;20028;-63
2022/01/13 03:15:34;;;;;;;126.90;57.33;;;;;;;;;;5091048;28;20464;-64
2022/01/13 03:18:00;;;;;;;129.45;57.38;;;;;;;;;;5091285;28;20024;-63
2022/01/13 03:20:26;;;;;;;134.13;58.88;;;;;;;;;;5091413;28;20527;-63
2022/01/13 03:22:52;;;;;;;132.68;59.15;;;;;;;;;;5095543;28;20020;-63
2022/01/13 03:25:23;;;;;;;137.07;58.63;;;;;;;;;;5095297;28;20032;-63
2022/01/13 03:27:56;;;;;;;126.32;55.83;;;;;;;;;;5095299;28;20367;-63
2022/01/13 03:30:22;;;;;;;124.93;57.28;;;;;;;;;;5095342;28;20051;-64
2022/01/13 03:32:48;;;;;;;123.55;56.75;;;;;;;;;;5095367;28;20069;-63
2022/01/13 03:35:15;;;;;;;130.05;56.58;;;;;;;;;;5095425;28;20020;-64
2022/01/13 03:37:41;;;;;;;121.28;54.97;;;;;;;;;;5095105;28;20047;-63
2022/01/13 03:40:07;;;;;;;121.82;55.35;;;;;;;;;;5095021;28;20032;-63
2022/01/13 03:42:33;;;;;;;128.70;55.70;;;;;;;;;;5095071;28;20012;-63
2022/01/13 03:45:00;;;;;;;128.80;57.65;;;;;;;;;;5094850;28;20028;-63
2022/01/13 03:47:26;;;;;;;149.20;65.32;;;;;;;;;;5094802;28;20053;-63
2022/01/13 03:49:54;;;;;;;123.78;56.35;;;;;;;;;;5095061;28;20031;-64
2022/01/13 03:52:22;;;;;;;122.15;55.65;;;;;;;;;;5094885;28;20369;-64
2022/01/13 03:54:58;;;;;;;126.60;56.88;;;;;;;;;;5094941;28;20031;-63
2022/01/13 03:57:30;;;;;;;123.65;54.38;;;;;;;;;;5094737;28;20032;-63
2022/01/13 04:00:02;;;;;;;123.30;54.53;;;;;;;;;;5094673;28;20020;-64
2022/01/13 04:02:28;;;;;;;;;;;;;;;;;;5095102;28;20028;-63
2022/01/13 04:04:54;;;;;;;123.38;54.08;;;;;;;;;;5094509;28;19911;-63
2022/01/13 04:07:21;;;;;;;122.72;55.15;;;;;;;;;;5094534;28;20055;-63
2022/01/13 04:09:47;;;;;;;118.03;52.78;;;;;;;;;;5094288;28;20028;-64
2022/01/13 04:12:14;;;;;;;124.07;53.40;;;;;;;;;;5094357;28;20028;-63
2022/01/13 04:14:49;;;;;;;115.80;53.20;;;;;;;;;;5094200;28;20051;-63
2022/01/13 04:17:19;;;;;;;121.10;54.38;;;;;;;;;;5094124;28;20804;-63
2022/01/13 04:19:45;;;;;;;120.05;53.55;;;;;;;;;;5094344;28;20026;-63
2022/01/13 04:22:12;;;;;;;122.55;53.03;;;;;;;;;;5094223;28;20078;-63
2022/01/13 04:24:39;;;;;;;116.90;52.17;;;;;;;;;;5094187;28;20031;-63
2022/01/13 04:27:05;;;;;;;114.68;51.53;;;;;;;;;;5094141;28;20476;-63
2022/01/13 04:31:58;;;;;;;111.15;48.58;;;;;;;;;;5094050;28;20036;-63
2022/01/13 04:34:24;;;;;;;118.32;52.17;;;;;;;;;;5093446;28;20028;-63
2022/01/13 04:36:50;;;;;;;130.68;56.90;;;;;;;;;;5094103;28;20486;-64
2022/01/13 04:39:17;;;;;;;124.88;54.80;;;;;;;;;;5094020;28;20027;-63
2022/01/13 04:41:46;;;;;;;131.95;57.65;;;;;;;;;;5093910;28;20028;-63
2022/01/13 04:44:13;;;;;;;122.57;55.67;;;;;;;;;;5093687;28;20044;-63
2022/01/13 04:46:40;;;;;;;114.95;51.55;;;;;;;;;;5093285;28;20119;-63
2022/01/13 04:49:07;;;;;;;117.45;51.95;;;;;;;;;;5093770;28;20032;-63
2022/01/13 04:51:33;;;;;;;117.93;53.03;;;;;;;;;;5093830;28;20376;-63
2022/01/13 04:53:59;;;;;;;115.88;51.53;;;;;;;;;;5093558;28;20403;-63
2022/01/13 04:58:54;;;;;;;126.10;56.30;;;;;;;;;;5093415;28;20036;-63
2022/01/13 05:01:21;;;;;;;119.50;53.83;;;;;;;;;;5093307;28;20028;-63
2022/01/13 05:03:47;;;;;;;126.35;57.25;;;;;;;;;;5093572;28;20031;-64
2022/01/13 05:06:13;;;;;;;137.05;59.85;;;;;;;;;;5093277;28;20036;-63
2022/01/13 05:08:39;;;;;;;130.90;59.95;;;;;;;;;;5093132;28;20024;-63
2022/01/13 05:11:06;;;;;;;167.38;73.25;;;;;;;;;;5092998;28;20035;-64
2022/01/13 05:13:32;;;;;;;173.52;75.57;;;;;;;;;;5093140;28;20085;-64
2022/01/13 05:15:58;;;;;;;164.25;72.47;;;;;;;;;;5092581;28;20059;-64
2022/01/13 05:18:42;;;;;;;146.50;67.40;;;;;;;;;;5092732;28;20016;-63
2022/01/13 05:21:18;;;;;;;139.10;62.00;;;;;;;;;;5091995;28;20024;-64
2022/01/13 05:23:44;;;;;;;129.45;61.10;;;;;;;;;;5092912;28;20055;-63
2022/01/13 05:26:12;;;;;;;132.73;59.33;;;;;;;;;;5092800;28;20043;-63
2022/01/13 05:28:40;;;;;;;129.15;55.70;;;;;;;;;;5092775;28;20020;-63
2022/01/13 05:31:06;;;;;;;130.55;58.20;;;;;;;;;;5092769;28;20059;-63
2022/01/13 05:33:32;;;;;;;129.43;57.90;;;;;;;;;;5092835;28;20024;-63
2022/01/13 05:36:00;;;;;;;125.50;56.50;;;;;;;;;;5092682;28;20036;-63
2022/01/13 05:38:27;;;;;;;128.20;54.63;;;;;;;;;;5092556;28;20387;-63
2022/01/13 05:40:53;;;;;;;122.80;54.03;;;;;;;;;;5092680;28;20483;-63
2022/01/13 05:43:19;;;;;;;127.18;56.85;;;;;;;;;;5092610;28;20020;-63
2022/01/13 05:45:46;;;;;;;132.50;55.60;;;;;;;;;;5091381;28;20075;-63
2022/01/13 05:48:12;;;;;;;131.52;56.97;;;;;;;;;;5092248;28;20025;-63
2022/01/13 05:50:38;;;;;;;128.70;57.45;;;;;;;;;;5092480;28;20036;-63
2022/01/13 05:53:05;;;;;;;126.88;56.17;;;;;;;;;;5092137;28;20140;-64
2022/01/13 05:55:31;;;;;;;123.28;55.92;;;;;;;;;;5092437;28;20074;-63
2022/01/13 05:57:57;;;;;;;132.73;57.42;;;;;;;;;;5092310;28;20028;-63
2022/01/13 06:00:24;;;;;;;127.75;58.75;;;;;;;;;;5092213;28;20053;-64
2022/01/13 06:02:50;;;;;;;124.05;55.85;;;;;;;;;;5091994;28;20054;-63
2022/01/13 06:05:18;;;;;;;122.35;54.25;;;;;;;;;;5092223;28;20732;-63
2022/01/13 06:07:44;;;;;;;108.32;50.65;;;;;;;;;;5092044;28;20028;-63
2022/01/13 06:10:13;;;;;;;117.45;51.65;;;;;;;;;;5091842;28;20476;-63
2022/01/13 06:12:39;;;;;;;116.53;49.15;;;;;;;;;;5092179;28;20042;-63
2022/01/13 06:15:10;;;;;;;110.88;48.20;;;;;;;;;;5091909;28;20043;-63
2022/01/13 06:17:36;;;;;;;103.32;47.85;;;;;;;;;;5091523;28;20059;-63
2022/01/13 06:20:04;;;;;;;105.20;47.22;;;;;;;;;;5092079;28;20016;-64
2022/01/13 06:22:30;;;;;;;107.97;47.50;;;;;;;;;;5091770;28;20457;-63
2022/01/13 06:24:56;;;;;;;107.03;48.08;;;;;;;;;;5091552;28;20036;-63
2022/01/13 06:27:22;;;;;;;117.22;52.20;;;;;;;;;;5091782;28;20118;-63
2022/01/13 06:29:49;;;;;;;116.18;53.33;;;;;;;;;;5091467;28;20425;-63
2022/01/13 06:32:15;;;;;;;132.43;56.65;;;;;;;;;;5091646;28;20020;-63
2022/01/13 06:34:41;;;;;;;131.18;60.92;;;;;;;;;;5091705;28;20084;-64
2022/01/13 06:37:10;;;;;;;140.88;61.22;;;;;;;;;;5091452;28;20489;-64
2022/01/13 06:39:36;;;;;;;132.45;62.78;;;;;;;;;;5091386;28;20483;-63
2022/01/13 06:42:02;;;;;;;138.80;62.30;;;;;;;;;;5091094;28;20032;-63
2022/01/13 06:44:28;;;;;;;139.50;62.65;;;;;;;;;;5091273;28;20028;-63
2022/01/13 06:46:57;;;;;;;157.18;68.72;;;;;;;;;;5091142;28;20115;-63
2022/01/13 06:49:26;;;;;;;149.55;64.85;;;;;;;;;;5091344;28;20096;-64
2022/01/13 06:51:52;;;;;;;176.38;75.07;;;;;;;;;;5091322;28;20051;-63
2022/01/13 06:54:18;;;;;;;257.25;108.18;;;;;;;;;;5091288;28;20390;-63
2022/01/13 06:56:44;;;;;;;192.55;89.88;;;;;;;;;;5091271;28;20016;-63
2022/01/13 06:59:12;;;;;;;193.82;89.65;;;;;;;;;;5091036;28;20470;-63
2022/01/13 07:01:39;;;;;;;165.57;75.32;;;;;;;;;;5091247;28;20020;-64
2022/01/13 07:04:05;;;;;;;163.32;70.70;;;;;;;;;;5091350;28;20027;-64
2022/01/13 07:06:33;;;;;;;155.63;66.70;;;;;;;;;;5091041;28;20040;-63
2022/01/13 07:08:59;;;;;;;168.98;74.40;;;;;;;;;;5091515;28;20028;-64
2022/01/13 07:11:25;;;;;;;185.15;81.20;;;;;;;;;;5091186;28;20031;-63
2022/01/13 07:13:51;;;;;;;192.48;83.88;;;;;;;;;;5090863;28;20031;-64
2022/01/13 07:16:18;;;;;;;189.82;78.78;;;;;;;;;;5090862;28;20180;-63
2022/01/13 07:18:45;;;;;;;214.27;95.43;;;;;;;;;;5091045;28;20048;-63
2022/01/13 07:21:12;;;;;;;244.43;104.57;;;;;;;;;;5091123;28;20031;-64
2022/01/13 07:23:38;;;;;;;213.20;96.43;;;;;;;;;;5090681;28;20024;-63
2022/01/13 07:26:04;;;;;;;192.95;88.70;;;;;;;;;;5091058;28;20100;-63
2022/01/13 07:28:30;;;;;;;178.80;82.50;;;;;;;;;;5090755;28;20012;-63
2022/01/13 07:30:57;;;;;;;160.45;73.38;;;;;;;;;;5090537;28;20028;-64
2022/01/13 07:33:23;;;;;;;172.43;77.95;;;;;;;;;;5090834;28;20365;-64
2022/01/13 07:35:50;;;;;;;159.48;71.53;;;;;;;;;;5090900;28;20028;-63
2022/01/13 07:38:16;;;;;;;146.32;63.65;;;;;;;;;;5090696;28;20055;-64
2022/01/13 07:40:42;;;;;;;141.55;65.22;;;;;;;;;;5090597;28;20036;-64
2022/01/13 07:43:08;;;;;;;140.75;64.75;;;;;;;;;;5090607;28;20103;-64
2022/01/13 07:45:34;;;;;;;130.57;58.70;;;;;;;;;;5090335;28;20032;-64
2022/01/13 07:48:00;;;;;;;127.35;57.70;;;;;;;;;;5072412;28;20097;-63
2022/01/13 07:50:26;;;;;;;132.30;58.80;;;;;;;;;;5090338;28;20111;-63
2022/01/13 07:52:52;;;;;;;119.95;55.13;;;;;;;;;;5090051;28;20051;-63
2022/01/13 07:55:18;;;;;;;126.53;56.50;;;;;;;;;;5090640;28;20392;-63
2022/01/13 07:57:45;;;;;;;125.82;55.40;;;;;;;;;;5090690;28;20053;-63
2022/01/13 08:00:12;;;;;;;121.25;55.70;;;;;;;;;;5072077;28;20396;-63
2022/01/13 08:02:38;;;;;;;126.53;57.90;;;;;;;;;;5090385;28;20030;-63
2022/01/13 08:05:04;;;;;;;128.57;57.55;;;;;;;;;;5090358;28;20426;-63
2022/01/13 08:07:30;;;;;;;133.60;58.55;;;;;;;;;;5090257;28;20047;-62
2022/01/13 08:09:56;;;;;;;128.45;59.15;;;;;;;;;;5094020;28;20024;-62
2022/01/13 08:12:23;;;;;;;129.23;60.70;;;;;;;;;;5093787;28;20098;-63
2022/01/13 08:14:50;;;;;;;129.75;60.15;;;;;;;;;;5093674;28;20024;-63
2022/01/13 08:19:45;;;;;;;133.80;62.20;;;;;;;;;;5094011;28;20500;-63
2022/01/13 08:20:06;;;;;;;131.80;61.10;;;;;;;;;;5094031;28;20047;-63
2022/01/13 08:22:32;;;;;;;134.55;62.80;;;;;;;;;;5093423;28;20030;-63
2022/01/13 08:24:58;;;;;;;131.50;62.15;;;;;;;;;;5093172;28;20499;-63
2022/01/13 08:27:24;;;;;;;136.85;61.15;;;;;;;;;;5093456;28;20082;-63
2022/01/13 08:29:50;;;;;;;132.65;61.47;;;;;;;;;;5093966;28;20028;-62
2022/01/13 08:32:18;;;;;;;138.13;63.42;;;;;;;;;;5094063;28;20024;-62
2022/01/13 08:34:44;;;;;;;133.60;61.15;;;;;;;;;;5093571;28;20074;-62
2022/01/13 08:37:10;;;;;;;131.73;61.58;;;;;;;;;;5093793;28;20035;-62
2022/01/13 08:39:43;;;;;;;123.57;56.38;;;;;;;;;;5093915;28;20023;-62
2022/01/13 08:42:09;;;;;;;118.10;53.83;;;;;;;;;;5093818;28;20043;-63
2022/01/13 08:44:35;;;;;;;119.20;53.85;;;;;;;;;;5093653;28;20154;-63
2022/01/13 08:47:01;;;;;;;130.07;57.03;;;;;;;;;;5092961;28;20479;-63
2022/01/13 08:49:28;;;;;;;118.03;54.45;;;;;;;;;;5093582;28;20151;-63
2022/01/13 08:51:55;;;;;;;114.90;55.40;;;;;;;;;;5093157;28;20020;-62
2022/01/13 08:54:22;;;;;;;110.03;49.92;;;;;;;;;;5093409;28;20031;-62
2022/01/13 08:56:48;;;;;;;132.18;57.50;;;;;;;;;;5092957;28;20391;-61
2022/01/13 08:59:14;;;;;;;125.88;56.63;;;;;;;;;;5091084;28;20024;-62
2022/01/13 09:01:40;;;;;;;111.72;53.35;;;;;;;;;;5093154;28;20024;-62
2022/01/13 09:04:07;;;;;;;111.32;51.10;;;;;;;;;;5100980;28;20035;-62
2022/01/13 09:06:33;;;;;;;118.72;52.53;;;;;;;;;;5093070;28;20040;-62
2022/01/13 09:08:59;;;;;;;115.55;52.20;;;;;;;;;;5092465;28;20027;-63
2022/01/13 09:11:25;;;;;;;111.25;53.10;;;;;;;;;;5092621;28;20050;-63
2022/01/13 09:13:58;;;;;;;125.18;59.40;;;;;;;;;;5092098;28;20020;-63
2022/01/13 09:16:26;;;;;;;119.85;54.72;;;;;;;;;;5092594;28;20052;-62
2022/01/13 09:21:21;;;;;;;107.30;52.10;;;;;;;;;;5092708;28;20430;-62
2022/01/13 09:23:47;;;;;;;109.78;52.17;;;;;;;;;;5092318;28;20030;-62
2022/01/13 09:26:13;;;;;;;113.68;53.10;;;;;;;;;;5092525;28;20486;-62
2022/01/13 09:28:40;;;;;;;108.45;52.33;;;;;;;;;;5092288;28;20437;-62
2022/01/13 09:31:06;;;;;;;113.03;51.50;;;;;;;;;;5092612;28;20032;-62
2022/01/13 09:33:32;;;;;;;110.55;52.28;;;;;;;;;;5091659;28;20020;-62
2022/01/13 09:35:59;;;;;;;110.85;54.22;;;;;;;;;;5091960;28;20020;-62
2022/01/13 09:38:25;;;;;;;115.65;55.42;;;;;;;;;;5092135;28;20554;-61
2022/01/13 09:40:52;;;;;;;145.52;63.92;;;;;;;;;;5092291;28;20102;-63
2022/01/13 09:43:21;;;;;;;140.95;63.22;;;;;;;;;;5091821;28;20135;-62
2022/01/13 09:45:47;;;;;;;225.60;109.28;;;;;;;;;;5091907;28;20044;-62
2022/01/13 09:48:14;;;;;;;172.95;83.18;;;;;;;;;;5091887;28;20036;-61
2022/01/13 09:50:40;;;;;;;140.90;67.70;;;;;;;;;;5074031;28;20028;-62
2022/01/13 09:53:08;;;;;;;118.07;54.35;;;;;;;;;;5092036;28;20017;-63
2022/01/13 09:55:34;;;;;;;118.55;53.45;;;;;;;;;;5091772;28;20103;-62
2022/01/13 09:58:03;;;;;;;108.10;52.22;;;;;;;;;;5091772;28;20020;-62
2022/01/13 10:00:29;;;;;;;115.53;52.92;;;;;;;;;;5091906;28;20111;-62
2022/01/13 10:02:55;;;;;;;112.72;52.25;;;;;;;;;;5091800;28;20024;-63
2022/01/13 10:05:22;;;;;;;102.35;48.28;;;;;;;;;;5091312;28;20039;-62
2022/01/13 10:07:50;;;;;;;111.18;50.35;;;;;;;;;;5091574;28;20065;-62
2022/01/13 10:10:17;;;;;;;105.55;49.47;;;;;;;;;;5091558;28;20055;-62
2022/01/13 10:12:47;;;;;;;100.10;46.78;;;;;;;;;;5090733;28;20036;-63
2022/01/13 10:17:58;;;;;;;94.57;41.15;;;;;;;;;;5091060;28;20423;-62
2022/01/13 10:20:24;;;;;;;85.60;41.10;;;;;;;;;;5091491;28;20036;-62
2022/01/13 10:22:51;;;;;;;78.70;36.70;;;;;;;;;;5091778;28;20024;-61
2022/01/13 10:25:27;;;;;;;82.30;38.05;;;;;;;;;;5091115;28;20028;-62
2022/01/13 10:27:53;;;;;;;80.28;36.40;;;;;;;;;;5091566;28;20542;-62
2022/01/13 10:30:22;;;;;;;84.72;37.70;;;;;;;;;;5090722;28;20034;-62
2022/01/13 10:32:48;;;;;;;82.43;40.63;;;;;;;;;;5090950;28;20376;-63
2022/01/13 10:35:16;;;;;;;83.25;37.53;;;;;;;;;;5090910;28;20550;-63
2022/01/13 10:37:44;;;;;;;75.55;36.30;;;;;;;;;;5090968;28;20039;-63
2022/01/13 10:40:25;;;;;;;82.82;37.72;;;;;;;;;;5089779;28;20085;-63
2022/01/13 10:45:28;;;;;;;77.72;36.42;;;;;;;;;;5089625;28;20039;-63
2022/01/13 10:47:59;;;;;;;80.18;35.13;;;;;;;;;;5089717;28;20036;-63
2022/01/13 10:50:29;;;;;;;79.07;38.47;;;;;;;;;;5085281;28;20032;-62
2022/01/13 10:52:56;;;;;;;86.75;44.83;;;;;;;;;;5089731;28;20024;-62
2022/01/13 10:55:24;;;;;;;85.28;40.78;;;;;;;;;;5089828;28;20376;-62
2022/01/13 10:57:51;;;;;;;74.10;33.75;;;;;;;;;;5089358;28;20027;-62
2022/01/13 11:00:17;;;;;;;70.57;33.33;;;;;;;;;;5089448;28;20024;-62
2022/01/13 11:02:44;;;;;;;73.82;34.33;;;;;;;;;;5088263;28;20020;-63
2022/01/13 11:05:10;;;;;;;74.80;35.75;;;;;;;;;;5088471;28;20458;-63
2022/01/13 11:07:37;;;;;;;83.20;38.60;;;;;;;;;;5088633;28;20020;-63
2022/01/13 11:10:06;;;;;;;78.72;37.60;;;;;;;;;;5088259;28;20147;-63
2022/01/13 11:12:38;;;;;;;78.05;35.53;;;;;;;;;;5084901;28;20114;-62
2022/01/13 11:15:08;;;;;;;74.47;34.67;;;;;;;;;;5083030;28;20051;-63
2022/01/13 11:17:38;;;;;;;73.82;35.20;;;;;;;;;;5080126;28;20061;-63
2022/01/13 11:20:05;;;;;;;70.53;32.58;;;;;;;;;;5090491;28;20031;-62
2022/01/13 11:22:34;;;;;;;72.82;36.25;;;;;;;;;;5090345;28;20099;-63
2022/01/13 11:25:01;;;;;;;80.30;37.78;;;;;;;;;;5089787;28;20107;-62
2022/01/13 11:27:28;;;;;;;72.30;34.00;;;;;;;;;;5090169;28;20032;-63
2022/01/13 11:29:55;;;;;;;69.32;32.72;;;;;;;;;;5085626;28;20552;-62
2022/01/13 11:32:21;;;;;;;70.45;34.10;;;;;;;;;;5089359;28;20526;-62
2022/01/13 11:34:48;;;;;;;72.22;34.30;;;;;;;;;;5105742;28;20501;-62
2022/01/13 11:37:14;;;;;;;72.55;34.30;;;;;;;;;;5104939;28;20162;-63
2022/01/13 11:39:41;;;;;;;70.18;34.25;;;;;;;;;;5088964;28;20024;-63
2022/01/13 11:42:09;;;;;;;81.25;38.83;;;;;;;;;;5091380;28;20075;-62
2022/01/13 11:44:36;;;;;;;70.60;33.30;;;;;;;;;;5094622;28;20024;-63
2022/01/13 11:47:08;;;;;;;65.25;32.42;;;;;;;;;;5094353;28;20081;-63
2022/01/13 11:49:53;;;;;;;68.82;32.22;;;;;;;;;;5094268;28;20102;-63
2022/01/13 11:52:31;;;;;;;68.55;33.03;;;;;;;;;;5094401;28;20113;-63
2022/01/13 11:54:57;;;;;;;65.78;32.28;;;;;;;;;;5094205;28;20043;-63
2022/01/13 11:57:25;;;;;;;75.75;36.88;;;;;;;;;;5094420;28;20036;-63
2022/01/13 12:00:00;;;;;;;87.20;38.50;;;;;;;;;;5094085;28;20031;-63
2022/01/13 12:02:28;;;;;;;69.25;32.05;;;;;;;;;;5093596;28;20052;-63
2022/01/13 12:05:01;;;;;;;65.15;31.45;;;;;;;;;;5093967;28;20078;-63
2022/01/13 12:07:44;;;;;;;64.97;32.25;;;;;;;;;;5094105;28;20024;-63
2022/01/13 12:10:31;;;;;;;68.03;32.78;;;;;;;;;;5093662;28;20384;-63
2022/01/13 12:12:57;;;;;;;63.25;30.50;;;;;;;;;;5093510;28;20527;-63
2022/01/13 12:15:25;;;;;;;66.40;30.63;;;;;;;;;;5093089;28;20043;-63
2022/01/13 12:17:59;;;;;;;61.97;30.65;;;;;;;;;;5093094;28;20032;-63
2022/01/13 12:20:47;;;;;;;63.92;31.33;;;;;;;;;;5093471;28;20028;-62
2022/01/13 12:23:31;;;;;;;68.85;30.77;;;;;;;;;;5073430;28;20029;-62
2022/01/13 12:25:59;;;;;;;65.20;31.83;;;;;;;;;;5073122;28;20063;-62
2022/01/13 12:28:27;;;;;;;63.20;30.75;;;;;;;;;;5081329;28;20130;-63
2022/01/13 12:30:53;;;;;;;64.28;32.17;;;;;;;;;;5083078;28;20031;-64
2022/01/13 12:33:33;;;;;;;61.53;29.77;;;;;;;;;;5075996;28;20044;-64
2022/01/13 12:35:59;;;;;;;64.85;28.90;;;;;;;;;;5082559;28;20543;-63
2022/01/13 12:38:27;;;;;;;65.25;32.03;;;;;;;;;;5072955;28;20028;-63
2022/01/13 12:41:14;;;;;;;65.63;30.40;;;;;;;;;;5072513;28;20131;-63
2022/01/13 12:46:16;;;;;;;65.05;31.70;;;;;;;;;;5072471;28;20332;-63
2022/01/13 12:48:44;;;;;;;68.00;32.47;;;;;;;;;;5072651;28;20028;-62
2022/01/13 12:51:14;;;;;;;66.63;31.60;;;;;;;;;;5073002;28;20052;-64
2022/01/13 12:53:41;;;;;;;59.88;29.10;;;;;;;;;;5054038;28;20121;-65
2022/01/13 12:56:09;;;;;;;62.17;29.75;;;;;;;;;;5073344;28;20052;-64
2022/01/13 12:58:37;;;;;;;61.45;29.88;;;;;;;;;;5086070;28;20541;-64
2022/01/13 13:01:04;;;;;;;67.65;33.47;;;;;;;;;;5093443;28;20101;-63
2022/01/13 13:03:31;;;;;;;73.22;35.40;;;;;;;;;;5093227;28;20356;-64
2022/01/13 13:05:57;;;;;;;143.20;69.88;;;;;;;;;;5093262;28;20440;-65
2022/01/13 13:08:24;;;;;;;76.78;37.95;;;;;;;;;;5093067;28;20036;-64
2022/01/13 13:10:53;;;;;;;67.18;32.03;;;;;;;;;;5092886;28;20031;-64
2022/01/13 13:13:19;;;;;;;68.53;33.28;;;;;;;;;;5092618;28;20499;-65
2022/01/13 13:15:59;;;;;;;64.00;32.72;;;;;;;;;;5092713;28;20121;-64
2022/01/13 13:18:27;;;;;;;60.35;28.13;;;;;;;;;;5093061;28;20036;-64
2022/01/13 13:20:53;;;;;;;61.88;30.58;;;;;;;;;;5074874;28;20039;-64
2022/01/13 13:23:39;;;;;;;60.75;30.05;;;;;;;;;;5093194;28;20123;-64
2022/01/13 13:26:08;;;;;;;58.97;28.02;;;;;;;;;;5092810;28;20075;-64
2022/01/13 13:28:38;;;;;;;55.63;28.77;;;;;;;;;;5093044;28;20020;-65
2022/01/13 13:31:12;;;;;;;61.13;29.25;;;;;;;;;;5092718;28;20042;-64
2022/01/13 13:33:43;;;;;;;55.92;27.83;;;;;;;;;;5092076;28;20032;-64
2022/01/13 13:36:13;;;;;;;63.10;27.15;;;;;;;;;;5092323;28;20039;-64
2022/01/13 13:39:07;;;;;;;62.13;29.88;;;;;;;;;;5092682;28;20077;-64
2022/01/13 13:41:33;;;;;;;73.00;35.08;;;;;;;;;;5090435;28;20044;-63
2022/01/13 13:44:00;;;;;;;75.88;34.70;;;;;;;;;;5092444;28;20028;-64
2022/01/13 13:46:26;;;;;;;69.07;31.65;;;;;;;;;;5092681;28;20123;-64
2022/01/13 13:48:53;;;;;;;63.10;29.88;;;;;;;;;;5074191;28;20052;-64
2022/01/13 13:51:20;;;;;;;59.65;30.33;;;;;;;;;;5092190;28;20024;-64
2022/01/13 13:54:05;;;;;;;59.17;28.23;;;;;;;;;;5092416;28;20154;-63
2022/01/13 13:56:31;;;;;;;59.97;29.38;;;;;;;;;;5092103;28;20071;-65
2022/01/13 13:58:57;;;;;;;61.22;29.65;;;;;;;;;;5092151;28;20070;-64
2022/01/13 14:01:23;;;;;;;56.88;28.42;;;;;;;;;;5092072;28;20031;-65
2022/01/13 14:03:49;;;;;;;62.50;28.95;;;;;;;;;;5092020;28;20448;-64
2022/01/13 14:06:34;;;;;;;57.35;28.35;;;;;;;;;;5090970;28;20487;-65
2022/01/13 14:09:00;;;;;;;56.35;27.80;;;;;;;;;;5091854;28;20436;-65
2022/01/13 14:11:26;;;;;;;55.90;28.40;;;;;;;;;;5091982;28;20435;-64
2022/01/13 14:14:08;;;;;;;57.03;28.80;;;;;;;;;;5091568;28;20119;-64
2022/01/13 14:16:35;;;;;;;71.60;34.75;;;;;;;;;;5091435;28;20054;-64
2022/01/13 14:19:07;;;;;;;63.53;29.65;;;;;;;;;;5091930;28;20028;-64
2022/01/13 14:21:59;;;;;;;61.65;30.35;;;;;;;;;;5091369;28;20063;-64
2022/01/13 14:24:36;;;;;;;58.45;28.30;;;;;;;;;;5086887;28;20028;-63
2022/01/13 14:27:06;;;;;;;60.58;29.95;;;;;;;;;;5091862;28;20122;-64
2022/01/13 14:29:33;;;;;;;59.33;28.85;;;;;;;;;;5091286;28;20066;-64
2022/01/13 14:32:17;;;;;;;59.22;28.80;;;;;;;;;;5091629;28;20074;-64
2022/01/13 14:34:44;;;;;;;57.25;29.75;;;;;;;;;;5091368;28;20035;-64
2022/01/13 14:37:11;;;;;;;60.65;29.38;;;;;;;;;;5091464;28;20056;-65
2022/01/13 14:39:37;;;;;;;63.38;29.52;;;;;;;;;;5091430;28;20060;-64
2022/01/13 14:42:03;;;;;;;58.78;29.55;;;;;;;;;;5091400;28;20024;-64
2022/01/13 14:44:29;;;;;;;61.92;29.27;;;;;;;;;;5091312;28;20024;-64
2022/01/13 14:47:03;;;;;;;61.25;28.92;;;;;;;;;;5091192;28;20032;-64
2022/01/13 14:49:31;;;;;;;62.20;29.45;;;;;;;;;;5072653;28;20036;-64
2022/01/13 14:51:59;;;;;;;62.30;30.88;;;;;;;;;;5091112;28;20020;-64